Time;durP1;ratioP1;P1;durP2;ratioP2;P2;SDS_P1;SDS_P2;PMS_P1;PMS_P2;Temp;Humidity;BMP_temperature;BMP_pressure;BME280_temperature;BME280_humidity;BME280_pressure;Samples;Min_cycle;Max_cycle;Signal;HPM_P1;HPM_P2
2021/07/16 00:00:10;;;;;;;5.57;3.05;;;17.60;88.80;;;;;;5055920;28;20052;-79
2021/07/16 00:02:36;;;;;;;5.45;2.85;;;17.60;88.80;;;;;;5070846;28;20107;-79
2021/07/16 00:05:02;;;;;;;7.28;3.45;;;17.60;89.30;;;;;;5055465;28;20108;-80
2021/07/16 00:07:28;;;;;;;4.50;3.15;;;17.60;88.60;;;;;;5055431;28;20423;-80
2021/07/16 00:09:54;;;;;;;7.43;3.60;;;17.60;88.60;;;;;;5055308;28;20392;-79
2021/07/16 00:12:19;;;;;;;7.10;3.50;;;17.60;88.60;;;;;;5055488;28;20032;-79
2021/07/16 00:14:45;;;;;;;6.63;3.30;;;17.60;88.40;;;;;;5055417;28;20023;-79
2021/07/16 00:17:11;;;;;;;4.03;2.97;;;17.50;88.30;;;;;;5055219;28;20040;-79
2021/07/16 00:19:36;;;;;;;5.22;3.10;;;17.60;88.40;;;;;;5055047;28;20494;-79
2021/07/16 00:22:02;;;;;;;5.57;3.00;;;17.50;88.30;;;;;;5073137;28;20444;-78
2021/07/16 00:24:28;;;;;;;6.05;3.53;;;17.60;88.20;;;;;;5055134;28;20021;-79
2021/07/16 00:26:54;;;;;;;4.95;2.95;;;17.50;88.10;;;;;;5052343;28;20035;-79
2021/07/16 00:29:19;;;;;;;4.80;3.20;;;17.50;88.00;;;;;;5073239;28;20032;-79
2021/07/16 00:31:45;;;;;;;4.68;3.08;;;17.50;88.00;;;;;;5055288;28;20484;-78
2021/07/16 00:34:10;;;;;;;3.70;2.95;;;17.50;88.00;;;;;;5054352;28;20396;-78
2021/07/16 00:36:36;;;;;;;6.55;3.17;;;17.50;88.00;;;;;;5054282;28;20031;-78
2021/07/16 00:39:02;;;;;;;5.05;3.13;;;17.50;88.00;;;;;;5071343;28;20110;-79
2021/07/16 00:41:27;;;;;;;5.80;3.08;;;17.50;87.70;;;;;;5072178;28;20078;-79
2021/07/16 00:43:53;;;;;;;5.82;3.42;;;17.50;87.90;;;;;;5054057;28;20074;-79
2021/07/16 00:46:18;;;;;;;3.58;2.67;;;17.60;87.90;;;;;;5053230;28;20120;-78
2021/07/16 00:48:44;;;;;;;5.93;3.40;;;17.60;87.90;;;;;;5053748;28;20431;-79
2021/07/16 00:51:11;;;;;;;4.93;3.08;;;17.50;87.80;;;;;;5070523;28;20024;-78
2021/07/16 00:53:38;;;;;;;4.10;3.03;;;17.50;87.80;;;;;;5070528;28;20029;-78
2021/07/16 00:56:04;;;;;;;5.57;3.30;;;17.50;87.80;;;;;;5053728;28;20021;-78
2021/07/16 00:58:30;;;;;;;6.50;3.50;;;17.50;87.80;;;;;;5071817;28;20029;-78
2021/07/16 01:00:56;;;;;;;3.75;3.40;;;17.60;87.90;;;;;;5053662;28;20389;-78
2021/07/16 01:03:22;;;;;;;3.72;3.13;;;17.50;87.90;;;;;;5070152;28;20071;-78
2021/07/16 01:05:48;;;;;;;5.78;3.15;;;17.50;87.90;;;;;;5070152;28;20476;-77
2021/07/16 01:08:14;;;;;;;5.28;3.30;;;17.50;87.90;;;;;;5053632;28;20090;-78
2021/07/16 01:10:39;;;;;;;5.05;3.05;;;17.60;87.90;;;;;;5071826;28;20021;-79
2021/07/16 01:13:13;;;;;;;6.20;3.70;;;17.60;87.80;;;;;;5070265;28;20355;-78
2021/07/16 01:15:39;;;;;;;5.00;3.83;;;17.60;87.80;;;;;;5070274;28;20017;-79
2021/07/16 01:18:05;;;;;;;5.72;3.70;;;17.50;87.90;;;;;;5070003;28;20028;-79
2021/07/16 01:20:32;;;;;;;5.82;3.10;;;17.50;87.90;;;;;;5070216;28;20537;-79
2021/07/16 01:22:59;;;;;;;6.85;3.42;;;17.50;87.90;;;;;;5071625;28;20411;-79
2021/07/16 01:25:27;;;;;;;5.95;3.50;;;17.50;87.90;;;;;;5070006;28;20031;-79
2021/07/16 01:27:55;;;;;;;10.98;3.80;;;17.50;87.80;;;;;;5070011;28;20032;-77
2021/07/16 01:30:27;;;;;;;6.85;3.85;;;17.40;87.70;;;;;;5053463;28;20024;-79
2021/07/16 01:32:53;;;;;;;5.88;3.72;;;17.40;87.70;;;;;;5027952;28;1195195;-78
2021/07/16 01:35:22;;;;;;;5.13;3.35;;;17.50;87.90;;;;;;5071087;28;20089;-79
2021/07/16 01:37:48;;;;;;;5.53;3.50;;;17.40;87.80;;;;;;5070838;28;20545;-78
2021/07/16 01:40:22;;;;;;;5.50;3.38;;;17.40;87.70;;;;;;5070908;28;20025;-78
2021/07/16 01:42:56;;;;;;;8.38;4.32;;;17.40;87.70;;;;;;5070744;28;20033;-79
2021/07/16 01:45:25;;;;;;;4.28;3.55;;;17.40;87.70;;;;;;5072204;28;20162;-78
2021/07/16 01:47:58;;;;;;;5.20;3.63;;;17.40;87.70;;;;;;5070637;28;20052;-78
2021/07/16 01:50:26;;;;;;;8.23;3.88;;;17.30;87.70;;;;;;5070756;28;20040;-78
2021/07/16 01:52:53;;;;;;;5.43;4.00;;;17.40;87.70;;;;;;5070602;28;20503;-78
2021/07/16 01:55:21;;;;;;;7.10;4.05;;;17.40;87.60;;;;;;5070734;28;20025;-79
2021/07/16 01:57:54;;;;;;;5.50;3.60;;;17.30;87.60;;;;;;5071182;28;20025;-79
2021/07/16 02:00:29;;;;;;;8.15;4.13;;;17.40;87.60;;;;;;5074207;28;20032;-78
2021/07/16 02:02:59;;;;;;;8.70;3.88;;;17.30;87.30;;;;;;5057437;28;20102;-79
2021/07/16 02:05:26;;;;;;;7.43;4.10;;;17.30;87.20;;;;;;5057620;28;20025;-79
2021/07/16 02:07:56;;;;;;;7.97;3.85;;;17.30;87.20;;;;;;5057398;28;20123;-79
2021/07/16 02:10:25;;;;;;;6.22;3.83;;;17.30;87.20;;;;;;5057474;28;20468;-79
2021/07/16 02:12:51;;;;;;;9.70;3.90;;;17.30;87.10;;;;;;5075378;28;20044;-79
2021/07/16 02:15:19;;;;;;;11.85;4.18;;;17.30;87.10;;;;;;5057547;28;20063;-79
2021/07/16 02:17:46;;;;;;;7.45;3.70;;;17.30;87.00;;;;;;5057198;28;20046;-79
2021/07/16 02:20:25;;;;;;;5.93;4.05;;;17.30;87.00;;;;;;5057408;28;20488;-79
2021/07/16 02:22:52;;;;;;;5.35;3.67;;;17.30;86.90;;;;;;5057305;28;20048;-79
2021/07/16 02:25:19;;;;;;;7.35;3.45;;;17.30;86.90;;;;;;5054491;28;20036;-79
2021/07/16 02:27:46;;;;;;;6.60;3.65;;;17.30;87.00;;;;;;5057271;28;20119;-79
2021/07/16 02:30:13;;;;;;;5.95;3.22;;;17.30;86.90;;;;;;5057303;28;20099;-79
2021/07/16 02:32:39;;;;;;;7.25;3.42;;;17.30;87.50;;;;;;5074871;28;20128;-79
2021/07/16 02:35:07;;;;;;;8.30;3.50;;;17.30;86.90;;;;;;5057272;28;20459;-79
2021/07/16 02:37:34;;;;;;;6.50;3.70;;;17.40;86.90;;;;;;5056715;28;20028;-79
2021/07/16 02:40:00;;;;;;;9.38;4.28;;;17.30;86.90;;;;;;5056996;28;20484;-78
2021/07/16 02:42:26;;;;;;;8.23;3.65;;;17.40;87.40;;;;;;5057140;28;20028;-80
2021/07/16 02:44:51;;;;;;;9.25;4.10;;;17.30;86.70;;;;;;5057076;28;20028;-79
2021/07/16 02:47:17;;;;;;;6.60;3.83;;;17.30;86.70;;;;;;5057082;28;20388;-79
2021/07/16 02:49:43;;;;;;;7.00;3.70;;;17.20;86.70;;;;;;5075017;28;20028;-80
2021/07/16 02:52:08;;;;;;;11.25;3.90;;;17.30;86.70;;;;;;5056928;28;20032;-80
2021/07/16 02:54:34;;;;;;;7.93;3.58;;;17.20;86.50;;;;;;5056871;28;20037;-80
2021/07/16 02:56:59;;;;;;;7.20;3.78;;;17.20;86.50;;;;;;5074695;28;20028;-79
2021/07/16 02:59:25;;;;;;;6.50;4.07;;;17.20;86.40;;;;;;5056780;28;20021;-79
2021/07/16 03:01:58;;;;;;;7.70;3.83;;;17.10;86.30;;;;;;5056735;28;20025;-80
2021/07/16 03:04:24;;;;;;;8.30;3.65;;;17.10;86.10;;;;;;5057333;28;20047;-79
2021/07/16 03:06:50;;;;;;;8.75;3.92;;;17.00;86.10;;;;;;5056527;28;20025;-80
2021/07/16 03:09:16;;;;;;;6.88;3.60;;;17.00;86.20;;;;;;5055933;28;20098;-79
2021/07/16 03:15:07;;;;;;;6.45;3.30;;;17.00;85.80;;;;;;5074894;28;20040;-79
2021/07/16 03:17:33;;;;;;;10.45;3.72;;;17.00;85.80;;;;;;5056711;28;20033;-79
2021/07/16 03:19:59;;;;;;;9.98;3.80;;;16.90;85.70;;;;;;5056257;28;20499;-79
2021/07/16 03:22:25;;;;;;;11.23;3.40;;;16.90;85.70;;;;;;5056326;28;20486;-77
2021/07/16 03:24:51;;;;;;;8.23;3.58;;;16.90;85.60;;;;;;5056170;28;20055;-78
2021/07/16 03:27:16;;;;;;;10.13;3.70;;;16.90;85.60;;;;;;5056213;28;20024;-78
2021/07/16 03:29:42;;;;;;;10.32;3.92;;;16.80;85.30;;;;;;5056249;28;20435;-78
2021/07/16 03:32:08;;;;;;;8.77;3.25;;;16.80;85.30;;;;;;5073918;28;20048;-78
2021/07/16 03:34:33;;;;;;;9.27;3.60;;;16.80;85.50;;;;;;5056247;28;20036;-79
2021/07/16 03:36:59;;;;;;;6.90;3.05;;;16.80;85.50;;;;;;5055934;28;20024;-79
2021/07/16 03:39:25;;;;;;;6.53;3.22;;;16.80;86.10;;;;;;5055900;28;20024;-79
2021/07/16 03:41:50;;;;;;;9.95;3.40;;;16.90;85.50;;;;;;5055924;28;20025;-79
2021/07/16 03:44:16;;;;;;;8.85;3.03;;;16.90;85.30;;;;;;5055981;28;20407;-78
2021/07/16 03:46:41;;;;;;;5.63;3.20;;;16.90;85.40;;;;;;5055903;28;20032;-78
2021/07/16 03:49:07;;;;;;;9.73;3.72;;;16.90;85.40;;;;;;5055955;28;20024;-78
2021/07/16 03:51:33;;;;;;;8.30;3.58;;;16.80;85.90;;;;;;5055828;28;20051;-78
2021/07/16 03:53:58;;;;;;;7.10;3.33;;;16.90;85.40;;;;;;5055799;28;20024;-79
2021/07/16 03:56:24;;;;;;;6.40;3.00;;;16.90;85.40;;;;;;5055755;28;20024;-78
2021/07/16 03:58:50;;;;;;;9.30;3.15;;;16.90;85.30;;;;;;5055755;28;20393;-78
2021/07/16 04:01:15;;;;;;;8.75;3.50;;;16.90;85.40;;;;;;5073345;28;20039;-78
2021/07/16 04:03:41;;;;;;;5.35;3.15;;;16.90;85.30;;;;;;5073550;28;20028;-79
2021/07/16 04:06:08;;;;;;;7.57;2.95;;;16.90;85.30;;;;;;5055546;28;20024;-78
2021/07/16 04:08:40;;;;;;;10.10;3.20;;;16.90;85.20;;;;;;5073543;28;20029;-79
2021/07/16 04:11:05;;;;;;;7.47;2.88;;;16.90;85.10;;;;;;5055484;28;20075;-79
2021/07/16 04:13:31;;;;;;;7.65;3.10;;;16.90;85.10;;;;;;5055396;28;20059;-79
2021/07/16 04:15:57;;;;;;;7.63;3.22;;;16.80;85.00;;;;;;5055458;28;20518;-79
2021/07/16 04:18:23;;;;;;;8.82;3.90;;;16.90;85.10;;;;;;5055205;28;20472;-78
2021/07/16 04:20:49;;;;;;;7.43;2.78;;;16.80;85.00;;;;;;5052300;28;20036;-78
2021/07/16 04:23:15;;;;;;;6.93;2.90;;;16.90;85.20;;;;;;5055162;28;20464;-78
2021/07/16 04:25:40;;;;;;;8.32;3.28;;;16.90;85.20;;;;;;5055480;28;20427;-77
2021/07/16 04:28:06;;;;;;;7.95;3.28;;;16.90;85.10;;;;;;5055244;28;20460;-78
2021/07/16 04:30:33;;;;;;;7.47;2.88;;;16.90;85.00;;;;;;5055152;28;20115;-78
2021/07/16 04:33:01;;;;;;;9.15;3.65;;;16.90;85.00;;;;;;5054941;28;20050;-77
2021/07/16 04:35:28;;;;;;;8.50;3.05;;;17.00;84.80;;;;;;5055219;28;20032;-79
2021/07/16 04:37:53;;;;;;;9.55;3.10;;;16.90;84.80;;;;;;5055068;28;20491;-78
2021/07/16 04:40:22;;;;;;;7.40;3.08;;;17.00;84.80;;;;;;5055067;28;20028;-79
2021/07/16 04:42:55;;;;;;;9.52;2.95;;;17.00;84.70;;;;;;5055059;28;20031;-79
2021/07/16 04:45:22;;;;;;;9.32;3.05;;;17.00;84.60;;;;;;5054950;28;20041;-79
2021/07/16 04:47:48;;;;;;;6.35;2.60;;;17.00;84.60;;;;;;5055187;28;20032;-78
2021/07/16 04:50:15;;;;;;;9.77;2.60;;;17.00;84.60;;;;;;5054974;28;20028;-79
2021/07/16 04:52:43;;;;;;;7.18;2.90;;;17.10;84.60;;;;;;5054944;28;20123;-78
2021/07/16 04:55:09;;;;;;;8.43;2.88;;;17.10;84.60;;;;;;5051921;28;20090;-78
2021/07/16 04:57:35;;;;;;;8.23;2.72;;;17.10;84.50;;;;;;5055081;28;20068;-78
2021/07/16 05:00:07;;;;;;;7.70;2.80;;;17.10;84.50;;;;;;5054794;28;20063;-80
2021/07/16 05:02:32;;;;;;;7.40;2.80;;;17.20;84.40;;;;;;5052643;28;20032;-79
2021/07/16 05:04:58;;;;;;;6.63;2.90;;;17.20;84.30;;;;;;5055207;28;20438;-79
2021/07/16 05:07:23;;;;;;;8.27;2.90;;;17.20;84.30;;;;;;5054733;28;20480;-78
2021/07/16 05:09:49;;;;;;;10.05;2.65;;;17.20;84.30;;;;;;5054728;28;20032;-77
2021/07/16 05:12:15;;;;;;;8.23;2.60;;;17.30;84.30;;;;;;5055067;28;20388;-77
2021/07/16 05:14:40;;;;;;;8.23;2.78;;;17.20;84.10;;;;;;5054626;28;20079;-78
2021/07/16 05:17:06;;;;;;;8.98;2.90;;;17.30;83.90;;;;;;5072593;28;20039;-77
2021/07/16 05:19:32;;;;;;;7.47;2.70;;;17.30;83.90;;;;;;5054886;28;20087;-77
2021/07/16 05:25:22;;;;;;;8.10;3.00;;;17.20;83.50;;;;;;5073203;28;20124;-77
2021/07/16 05:27:48;;;;;;;6.85;2.35;;;17.20;83.50;;;;;;5072513;28;20579;-78
2021/07/16 05:30:15;;;;;;;7.47;2.78;;;17.10;83.50;;;;;;5054569;28;20041;-78
2021/07/16 05:32:41;;;;;;;7.45;2.63;;;17.20;83.60;;;;;;5054807;28;20048;-78
2021/07/16 05:35:07;;;;;;;10.40;2.90;;;17.20;83.50;;;;;;5058301;28;20031;-78
2021/07/16 05:37:32;;;;;;;7.32;2.53;;;17.20;83.50;;;;;;5076181;28;20040;-79
2021/07/16 05:39:58;;;;;;;5.82;2.42;;;17.30;83.50;;;;;;5058357;28;20021;-78
2021/07/16 05:42:24;;;;;;;9.30;2.67;;;17.30;83.40;;;;;;5076165;28;20035;-79
2021/07/16 05:44:50;;;;;;;8.70;3.03;;;17.40;83.30;;;;;;5058134;28;20025;-79
2021/07/16 05:47:16;;;;;;;8.13;2.72;;;17.40;83.30;;;;;;5058072;28;20038;-80
2021/07/16 05:49:43;;;;;;;10.52;2.72;;;17.50;83.30;;;;;;5058023;28;20119;-79
2021/07/16 05:52:08;;;;;;;8.55;2.40;;;17.60;83.10;;;;;;5057881;28;20025;-78
2021/07/16 05:54:34;;;;;;;9.88;2.75;;;17.70;82.90;;;;;;5057939;28;20028;-80
2021/07/16 05:57:00;;;;;;;9.77;2.60;;;17.80;82.70;;;;;;5058234;28;20028;-79
2021/07/16 05:59:26;;;;;;;6.55;2.25;;;17.90;82.30;;;;;;5057880;28;20086;-78
2021/07/16 06:01:51;;;;;;;8.18;2.40;;;18.10;82.10;;;;;;5075731;28;20016;-78
2021/07/16 06:04:17;;;;;;;9.35;2.63;;;18.00;81.80;;;;;;5057713;28;20119;-78
2021/07/16 06:06:47;;;;;;;8.85;2.72;;;18.10;81.70;;;;;;5057931;28;20017;-77
2021/07/16 06:09:13;;;;;;;7.53;2.58;;;18.20;81.60;;;;;;5057721;28;20037;-79
2021/07/16 06:11:39;;;;;;;6.82;2.13;;;18.20;81.50;;;;;;5057758;28;20028;-80
2021/07/16 06:14:04;;;;;;;7.03;2.47;;;18.20;81.20;;;;;;5058088;28;20384;-78
2021/07/16 06:16:31;;;;;;;10.57;2.70;;;18.20;81.10;;;;;;5057565;28;20036;-78
2021/07/16 06:18:57;;;;;;;8.30;2.50;;;18.20;81.20;;;;;;5075479;28;20399;-78
2021/07/16 06:21:22;;;;;;;11.63;2.90;;;18.20;81.20;;;;;;5057519;28;20020;-79
2021/07/16 06:23:48;;;;;;;7.78;2.22;;;18.10;81.00;;;;;;5057485;28;20025;-79
2021/07/16 06:26:14;;;;;;;11.63;3.15;;;18.10;80.80;;;;;;5057688;28;20031;-79
2021/07/16 06:28:40;;;;;;;13.23;3.13;;;18.00;80.90;;;;;;5057880;28;20099;-79
2021/07/16 06:31:05;;;;;;;7.43;2.65;;;17.90;80.60;;;;;;5057358;28;20021;-79
2021/07/16 06:33:31;;;;;;;6.90;2.38;;;17.90;80.90;;;;;;5057110;28;20561;-78
2021/07/16 06:35:56;;;;;;;7.95;2.17;;;17.80;80.90;;;;;;5057289;28;20123;-79
2021/07/16 06:38:22;;;;;;;8.48;2.55;;;17.80;81.00;;;;;;5057181;28;20032;-79
2021/07/16 06:40:48;;;;;;;7.70;2.45;;;17.80;80.90;;;;;;5057251;28;20028;-79
2021/07/16 06:43:13;;;;;;;10.18;2.63;;;17.90;81.10;;;;;;5075078;28;20028;-78
2021/07/16 06:45:39;;;;;;;7.32;2.45;;;17.90;81.00;;;;;;5057249;28;20031;-78
2021/07/16 06:48:05;;;;;;;7.88;2.50;;;17.90;80.90;;;;;;5057166;28;20037;-78
2021/07/16 06:50:31;;;;;;;8.02;2.33;;;17.90;80.90;;;;;;5073686;28;20044;-78
2021/07/16 06:53:46;;;;;;;8.88;2.53;;;18.00;81.00;;;;;;5057000;28;20111;-78
2021/07/16 06:56:12;;;;;;;9.25;2.72;;;18.10;80.80;;;;;;5056653;28;20087;-78
2021/07/16 06:58:38;;;;;;;10.25;3.08;;;18.20;80.40;;;;;;5056759;28;20068;-78
2021/07/16 07:01:04;;;;;;;8.65;2.50;;;18.20;80.30;;;;;;5056767;28;20119;-78
2021/07/16 07:03:29;;;;;;;9.80;2.78;;;18.20;80.20;;;;;;5069069;28;20479;-78
2021/07/16 07:05:56;;;;;;;7.50;2.25;;;18.20;80.20;;;;;;5073666;28;20384;-78
2021/07/16 07:08:22;;;;;;;9.52;3.03;;;18.20;80.10;;;;;;5056739;28;20020;-78
2021/07/16 07:10:48;;;;;;;7.25;2.40;;;18.20;80.00;;;;;;5073172;28;20437;-78
2021/07/16 07:13:13;;;;;;;9.70;2.72;;;18.20;80.00;;;;;;5074299;28;20032;-78
2021/07/16 07:15:39;;;;;;;7.50;2.65;;;18.30;79.90;;;;;;5056441;28;20111;-78
2021/07/16 07:18:08;;;;;;;8.90;2.50;;;18.20;79.90;;;;;;5056185;28;20028;-78
2021/07/16 07:20:35;;;;;;;9.73;2.75;;;18.30;80.00;;;;;;5056340;28;20017;-79
2021/07/16 07:23:02;;;;;;;7.55;3.03;;;18.20;79.90;;;;;;5056316;28;20020;-79
2021/07/16 07:25:28;;;;;;;7.68;2.72;;;18.30;79.70;;;;;;5056513;28;20082;-78
2021/07/16 07:27:54;;;;;;;13.48;2.78;;;18.30;79.80;;;;;;5074359;28;20032;-78
2021/07/16 07:30:20;;;;;;;11.98;2.63;;;18.20;79.70;;;;;;5056321;28;20032;-78
2021/07/16 07:32:46;;;;;;;8.60;2.40;;;18.20;79.70;;;;;;5056027;28;20105;-78
2021/07/16 07:35:13;;;;;;;9.85;2.70;;;18.30;79.70;;;;;;5056371;28;20031;-78
2021/07/16 07:37:39;;;;;;;9.98;2.83;;;18.30;79.50;;;;;;5056174;28;20093;-78
2021/07/16 07:40:08;;;;;;;10.88;2.50;;;18.30;79.60;;;;;;5056462;28;20039;-78
2021/07/16 07:42:34;;;;;;;7.95;2.25;;;18.30;79.70;;;;;;5056137;28;20032;-78
2021/07/16 07:45:00;;;;;;;10.57;3.00;;;18.40;79.70;;;;;;5055990;28;20033;-78
2021/07/16 07:47:31;;;;;;;9.98;2.80;;;18.40;79.40;;;;;;5073928;28;20034;-78
2021/07/16 07:50:22;;;;;;;8.57;2.92;;;18.40;79.50;;;;;;5032126;28;20405;-78
2021/07/16 07:52:50;;;;;;;16.13;3.20;;;18.40;79.40;;;;;;5031721;28;20033;-79
2021/07/16 07:55:18;;;;;;;10.07;2.80;;;18.30;79.30;;;;;;5031444;28;20405;-78
2021/07/16 07:57:44;;;;;;;11.07;2.90;;;18.40;79.40;;;;;;5031393;28;20064;-78
2021/07/16 08:00:16;;;;;;;13.90;3.40;;;18.40;79.30;;;;;;5031751;28;20480;-79
2021/07/16 08:02:42;;;;;;;7.13;2.60;;;18.40;78.90;;;;;;5031509;28;20026;-78
2021/07/16 08:05:09;;;;;;;8.43;3.00;;;18.40;79.10;;;;;;5031418;28;20046;-78
2021/07/16 08:07:36;;;;;;;11.80;2.78;;;18.50;79.10;;;;;;5012227;28;20041;-77
2021/07/16 08:10:04;;;;;;;11.65;3.30;;;18.50;79.00;;;;;;5014958;28;20045;-76
2021/07/16 08:12:30;;;;;;;8.20;2.83;;;18.60;78.90;;;;;;5031373;28;20090;-78
2021/07/16 08:14:55;;;;;;;10.95;2.78;;;18.60;78.80;;;;;;5031211;28;20080;-81
2021/07/16 08:17:21;;;;;;;10.88;3.55;;;18.60;78.40;;;;;;5031366;28;20033;-80
2021/07/16 08:19:47;;;;;;;10.23;3.00;;;18.70;78.50;;;;;;5031175;28;20025;-78
2021/07/16 08:22:12;;;;;;;8.52;2.65;;;18.70;78.40;;;;;;5070138;28;20040;-79
2021/07/16 08:24:38;;;;;;;7.80;2.58;;;18.80;78.30;;;;;;5055198;28;20035;-81
2021/07/16 08:27:04;;;;;;;12.50;3.05;;;19.00;78.90;;;;;;5055980;28;20024;-80
2021/07/16 08:29:30;;;;;;;7.45;2.60;;;19.00;77.70;;;;;;5055379;28;20040;-81
2021/07/16 08:31:56;;;;;;;10.15;2.80;;;19.20;77.60;;;;;;5055024;28;20392;-81
2021/07/16 08:34:21;;;;;;;11.05;2.97;;;19.30;76.70;;;;;;5055190;28;20059;-81
2021/07/16 08:36:48;;;;;;;12.20;3.05;;;19.30;76.40;;;;;;5052796;28;20028;-81
2021/07/16 08:39:14;;;;;;;9.98;2.80;;;19.40;75.90;;;;;;5055178;28;20188;-83
2021/07/16 08:41:40;;;;;;;10.90;2.88;;;19.50;76.00;;;;;;5055120;28;20107;-82
2021/07/16 08:44:06;;;;;;;8.55;2.90;;;19.60;75.90;;;;;;5056076;28;20538;-81
2021/07/16 08:46:32;;;;;;;8.55;2.60;;;19.70;75.40;;;;;;5073360;28;20083;-83
2021/07/16 08:48:58;;;;;;;11.25;2.90;;;19.80;75.30;;;;;;5055130;28;20051;-81
2021/07/16 08:51:24;;;;;;;9.93;2.65;;;19.90;75.10;;;;;;5054956;28;20032;-81
2021/07/16 08:53:54;;;;;;;10.63;3.13;;;20.10;75.00;;;;;;5071728;28;20020;-79
2021/07/16 08:56:21;;;;;;;13.18;3.33;;;20.10;74.20;;;;;;5055030;28;20024;-79
2021/07/16 08:58:46;;;;;;;11.77;3.03;;;20.10;74.20;;;;;;5055197;28;20016;-83
2021/07/16 09:01:13;;;;;;;10.32;3.00;;;20.10;74.10;;;;;;5056123;28;20071;-82
2021/07/16 09:04:05;;;;;;;13.70;3.30;;;20.20;73.80;;;;;;5056379;28;20104;-83
2021/07/16 09:06:45;;;;;;;11.40;3.53;;;20.20;73.30;;;;;;5055948;28;20013;-81
2021/07/16 09:09:12;;;;;;;10.95;3.58;;;20.30;73.30;;;;;;5057971;28;20035;-80
2021/07/16 09:11:45;;;;;;;13.23;3.72;;;20.40;72.20;;;;;;5076993;28;20063;-80
2021/07/16 09:14:30;;;;;;;11.48;3.05;;;20.30;71.50;;;;;;5075604;28;20028;-79
2021/07/16 09:17:11;;;;;;;9.20;3.35;;;20.30;72.00;;;;;;5058691;28;20499;-80
2021/07/16 09:19:42;;;;;;;10.45;2.97;;;20.30;72.20;;;;;;5059153;28;20463;-79
2021/07/16 09:22:15;;;;;;;12.18;3.38;;;20.30;72.20;;;;;;5058814;28;20535;-79
2021/07/16 09:24:54;;;;;;;12.07;3.30;;;20.30;71.90;;;;;;5076504;28;20028;-79
2021/07/16 09:27:40;;;;;;;8.15;3.13;;;20.20;72.50;;;;;;5075361;28;20109;-80
2021/07/16 09:30:21;;;;;;;11.65;3.13;;;20.20;72.40;;;;;;5058795;28;20476;-79
2021/07/16 09:32:48;;;;;;;12.02;3.22;;;20.20;72.50;;;;;;5059142;28;20040;-79
2021/07/16 09:35:27;;;;;;;9.13;3.03;;;20.10;72.60;;;;;;5058251;28;20033;-79
2021/07/16 09:37:52;;;;;;;8.45;2.70;;;20.00;73.00;;;;;;5076151;28;20035;-79
2021/07/16 09:40:26;;;;;;;8.88;3.13;;;19.90;73.40;;;;;;5074782;28;20388;-79
2021/07/16 09:43:04;;;;;;;8.38;2.85;;;19.80;73.60;;;;;;5076258;28;20078;-80
2021/07/16 09:45:30;;;;;;;10.77;2.80;;;19.80;73.80;;;;;;5074821;28;20020;-80
2021/07/16 09:47:56;;;;;;;7.93;2.70;;;19.80;74.00;;;;;;5076346;28;20028;-82
2021/07/16 09:50:24;;;;;;;10.65;2.72;;;19.80;74.10;;;;;;5074975;28;20396;-82
2021/07/16 09:53:22;;;;;;;10.82;3.05;;;19.70;74.20;;;;;;5074764;28;20120;-82
2021/07/16 09:55:48;;;;;;;10.02;3.33;;;19.70;74.10;;;;;;5074881;28;20052;-82
2021/07/16 09:58:24;;;;;;;10.73;3.00;;;19.60;74.40;;;;;;5074600;28;20082;-82
2021/07/16 10:00:52;;;;;;;10.18;2.88;;;19.40;74.40;;;;;;5074680;28;20024;-81
2021/07/16 10:03:18;;;;;;;10.63;3.13;;;19.40;74.90;;;;;;5074093;28;20418;-81
2021/07/16 10:05:46;;;;;;;10.02;2.55;;;19.30;75.00;;;;;;5074966;28;20082;-82
2021/07/16 10:08:12;;;;;;;11.13;2.75;;;19.30;75.30;;;;;;5074433;28;20036;-77
2021/07/16 10:10:39;;;;;;;8.52;2.83;;;19.20;75.50;;;;;;5075527;28;20107;-77
2021/07/16 10:13:10;;;;;;;10.57;2.95;;;19.20;75.60;;;;;;5075529;28;20024;-77
2021/07/16 10:15:36;;;;;;;8.68;2.92;;;19.20;75.70;;;;;;5074647;28;20388;-78
2021/07/16 10:21:24;;;;;;;7.57;2.55;;;19.30;75.80;;;;;;5075477;28;20028;-76
2021/07/16 10:23:52;;;;;;;12.13;3.08;;;19.30;75.80;;;;;;5074177;28;20024;-78
2021/07/16 10:26:50;;;;;;;10.57;2.78;;;19.20;75.90;;;;;;5058255;28;20054;-77
2021/07/16 10:32:51;;;;;;;9.95;2.80;;;19.10;76.40;;;;;;5082587;28;20506;-80
2021/07/16 10:35:21;;;;;;;7.18;2.60;;;19.10;76.60;;;;;;5077430;28;20418;-77
2021/07/16 10:37:49;;;;;;;10.00;3.20;;;19.00;76.80;;;;;;5077199;28;20085;-78
2021/07/16 10:40:50;;;;;;;11.98;2.85;;;19.00;77.10;;;;;;5095380;28;20020;-78
2021/07/16 10:43:27;;;;;;;7.22;2.80;;;18.90;77.30;;;;;;4977676;28;20032;-78
2021/07/16 10:45:56;;;;;;;11.93;3.28;;;18.90;77.40;;;;;;5064681;28;20032;-81
2021/07/16 10:48:31;;;;;;;10.68;3.03;;;19.00;77.60;;;;;;5077993;28;20027;-82
2021/07/16 10:50:58;;;;;;;10.10;2.70;;;19.00;77.80;;;;;;5077726;28;20143;-77
2021/07/16 10:53:26;;;;;;;13.93;3.97;;;19.10;77.70;;;;;;5095130;28;20093;-76
2021/07/16 10:55:55;;;;;;;8.73;3.30;;;19.20;77.50;;;;;;5076843;28;20047;-76
2021/07/16 10:58:27;;;;;;;13.65;3.80;;;19.40;77.40;;;;;;5095113;28;20035;-77
2021/07/16 11:00:55;;;;;;;12.30;3.75;;;19.40;77.10;;;;;;5077299;28;20502;-77
2021/07/16 11:03:35;;;;;;;9.70;3.08;;;19.50;77.00;;;;;;5076862;28;20099;-78
2021/07/16 11:06:01;;;;;;;12.13;3.55;;;19.50;77.10;;;;;;5076884;28;20050;-77
2021/07/16 11:08:37;;;;;;;11.13;3.47;;;19.50;76.90;;;;;;5076427;28;20020;-77
2021/07/16 11:11:17;;;;;;;7.55;2.58;;;19.50;76.90;;;;;;5076269;28;20081;-77
2021/07/16 11:13:47;;;;;;;8.98;2.42;;;19.40;77.10;;;;;;5076789;28;20023;-77
2021/07/16 11:16:15;;;;;;;11.45;3.13;;;19.40;77.10;;;;;;5094535;28;20479;-77
2021/07/16 11:19:05;;;;;;;10.13;3.10;;;19.40;77.10;;;;;;5076202;28;20024;-76
2021/07/16 11:21:43;;;;;;;9.77;2.97;;;19.50;77.00;;;;;;5076343;28;20078;-76
2021/07/16 11:24:32;;;;;;;10.23;2.88;;;19.60;77.10;;;;;;5094705;28;20016;-77
2021/07/16 11:27:13;;;;;;;9.60;3.10;;;19.70;76.90;;;;;;5094940;28;20069;-77
2021/07/16 11:29:44;;;;;;;8.60;2.72;;;19.80;76.50;;;;;;5076191;28;20020;-77
2021/07/16 11:32:24;;;;;;;8.82;2.92;;;19.90;76.50;;;;;;5093473;28;20135;-77
2021/07/16 11:34:58;;;;;;;9.43;3.25;;;19.90;76.50;;;;;;5076115;28;20068;-78
2021/07/16 11:37:43;;;;;;;12.55;3.47;;;19.90;76.10;;;;;;5094244;28;20111;-76
2021/07/16 11:43:31;;;;;;;11.88;3.45;;;19.80;75.70;;;;;;5095536;28;20073;-77
2021/07/16 11:45:57;;;;;;;10.73;2.92;;;19.80;75.70;;;;;;5075666;28;20020;-77
2021/07/16 11:48:24;;;;;;;7.45;2.50;;;19.80;75.60;;;;;;5076100;28;20016;-78
2021/07/16 11:50:50;;;;;;;9.52;3.20;;;19.90;75.60;;;;;;5075807;28;20031;-78
2021/07/16 11:53:17;;;;;;;8.60;2.95;;;20.00;75.50;;;;;;5075818;28;20024;-77
2021/07/16 11:55:45;;;;;;;10.70;3.20;;;20.20;75.30;;;;;;5076124;28;20133;-77
2021/07/16 11:58:12;;;;;;;9.75;2.95;;;20.40;75.10;;;;;;5094006;28;20054;-77
2021/07/16 12:00:40;;;;;;;11.70;2.90;;;20.60;74.80;;;;;;5075505;28;20076;-75
2021/07/16 12:03:08;;;;;;;11.43;3.30;;;20.70;74.50;;;;;;5075615;28;20019;-76
2021/07/16 12:05:48;;;;;;;9.40;2.58;;;20.90;74.10;;;;;;5075507;28;20016;-76
2021/07/16 12:08:22;;;;;;;12.05;3.38;;;20.90;73.70;;;;;;5093725;28;20099;-76
2021/07/16 12:10:48;;;;;;;8.88;3.17;;;21.00;73.40;;;;;;5093706;28;20034;-76
2021/07/16 12:13:16;;;;;;;9.02;3.00;;;21.00;73.30;;;;;;5093546;28;20020;-76
2021/07/16 12:15:42;;;;;;;12.98;3.10;;;21.00;73.20;;;;;;5075491;28;20067;-76
2021/07/16 12:18:08;;;;;;;10.80;3.05;;;20.90;73.00;;;;;;5093374;28;20093;-77
2021/07/16 12:20:36;;;;;;;8.63;2.70;;;20.90;73.00;;;;;;5075279;28;20030;-77
2021/07/16 12:23:11;;;;;;;9.52;2.92;;;20.90;73.20;;;;;;5072642;28;20059;-77
2021/07/16 12:25:37;;;;;;;9.82;2.80;;;20.80;73.10;;;;;;5093648;28;20024;-77
2021/07/16 12:28:15;;;;;;;11.45;3.10;;;20.70;73.30;;;;;;5093357;28;20024;-77
2021/07/16 12:30:42;;;;;;;9.73;2.90;;;20.70;73.20;;;;;;5093459;28;20535;-76
2021/07/16 12:33:08;;;;;;;10.90;3.10;;;20.80;73.10;;;;;;5075440;28;20070;-77
2021/07/16 12:35:44;;;;;;;9.98;3.25;;;20.70;72.80;;;;;;5075013;28;20024;-77
2021/07/16 12:38:13;;;;;;;9.95;2.85;;;20.80;73.10;;;;;;5075364;28;20032;-76
2021/07/16 12:40:44;;;;;;;6.97;2.50;;;20.80;73.20;;;;;;5075392;28;20012;-76
2021/07/16 12:43:13;;;;;;;10.55;3.20;;;20.90;73.30;;;;;;5075042;28;20440;-76
2021/07/16 12:45:42;;;;;;;7.53;2.80;;;20.90;73.30;;;;;;5075199;28;20024;-76
2021/07/16 12:48:25;;;;;;;7.47;2.58;;;20.90;73.30;;;;;;5093167;28;20476;-77
2021/07/16 12:50:52;;;;;;;12.57;3.00;;;20.90;73.40;;;;;;5093070;28;20051;-76
2021/07/16 12:53:39;;;;;;;10.20;2.97;;;21.00;73.10;;;;;;5074976;28;20028;-77
2021/07/16 12:56:27;;;;;;;9.27;3.25;;;21.10;73.00;;;;;;5092889;28;20024;-76
2021/07/16 12:58:56;;;;;;;9.13;2.85;;;21.10;72.60;;;;;;5075096;28;20020;-77
2021/07/16 13:01:31;;;;;;;9.52;2.67;;;21.20;72.50;;;;;;5074812;28;20020;-77
2021/07/16 13:04:09;;;;;;;10.70;3.30;;;21.20;72.50;;;;;;5074802;28;20020;-77
2021/07/16 13:06:35;;;;;;;9.05;3.20;;;21.20;72.20;;;;;;5074748;28;20020;-77